Time;durP1;ratioP1;P1;durP2;ratioP2;P2;SDS_P1;SDS_P2;PMS_P1;PMS_P2;Temp;Humidity;BMP_temperature;BMP_pressure;BME280_temperature;BME280_humidity;BME280_pressure;Samples;Min_cycle;Max_cycle;Signal;HPM_P1;HPM_P2
2023/06/20 05:00:21;;;;;;;5.23;4.83;;;21.40;97.20;;;;;;1720351;28;20181;-71
2023/06/20 05:01:14;;;;;;;5.60;5.03;;;21.40;97.20;;;;;;1721273;28;20208;-71
2023/06/20 05:02:06;;;;;;;5.97;5.47;;;21.40;97.20;;;;;;1720533;28;20232;-71
2023/06/20 05:02:58;;;;;;;5.75;5.30;;;21.40;97.20;;;;;;1721761;28;20220;-71
2023/06/20 05:03:50;;;;;;;6.10;5.40;;;21.40;97.20;;;;;;1727258;28;20188;-71
2023/06/20 05:04:40;;;;;;;6.32;5.32;;;21.40;97.20;;;;;;1728540;28;20402;-71
2023/06/20 05:05:32;;;;;;;5.73;5.33;;;21.40;97.20;;;;;;1728501;28;20203;-71
2023/06/20 05:06:23;;;;;;;5.75;5.15;;;21.40;97.20;;;;;;1728563;28;20700;-71
2023/06/20 05:07:15;;;;;;;6.03;5.53;;;21.40;97.20;;;;;;1727893;28;20583;-71
2023/06/20 05:08:05;;;;;;;6.00;5.50;;;21.50;97.20;;;;;;1721310;28;20213;-71
2023/06/20 05:08:57;;;;;;;5.93;5.50;;;21.50;97.20;;;;;;1721628;28;20280;-71
2023/06/20 05:09:48;;;;;;;6.60;6.00;;;21.50;97.20;;;;;;1721567;28;20212;-71
2023/06/20 05:10:40;;;;;;;7.68;5.07;;;21.50;97.20;;;;;;1719606;28;20220;-71
2023/06/20 05:11:31;;;;;;;6.07;5.57;;;21.50;97.20;;;;;;1719504;28;20204;-71
2023/06/20 05:12:23;;;;;;;6.17;5.57;;;21.50;97.20;;;;;;1719318;28;20237;-70
2023/06/20 05:13:13;;;;;;;6.40;5.80;;;21.60;97.20;;;;;;1719278;28;20212;-71
2023/06/20 05:14:05;;;;;;;5.80;5.37;;;21.60;97.20;;;;;;1719477;28;20199;-71
2023/06/20 05:14:56;;;;;;;6.05;5.55;;;21.60;97.20;;;;;;1720325;28;20571;-71
2023/06/20 05:15:49;;;;;;;6.63;6.03;;;21.60;97.20;;;;;;1720451;28;20621;-71
2023/06/20 05:16:39;;;;;;;5.80;5.40;;;21.60;97.20;;;;;;1721583;28;20205;-71
2023/06/20 05:17:31;;;;;;;8.17;6.37;;;21.60;97.20;;;;;;1721522;28;20205;-71
2023/06/20 05:18:22;;;;;;;5.20;4.70;;;21.60;97.20;;;;;;1721313;28;20213;-71
2023/06/20 05:19:14;;;;;;;7.17;5.50;;;21.60;97.20;;;;;;1721431;28;20205;-71
2023/06/20 05:20:06;;;;;;;5.72;5.30;;;21.60;97.20;;;;;;1720321;28;20224;-71
2023/06/20 05:20:58;;;;;;;6.80;6.13;;;21.60;97.20;;;;;;1719190;28;20228;-71
2023/06/20 05:21:49;;;;;;;7.15;6.18;;;21.60;97.20;;;;;;1719322;28;20319;-71
2023/06/20 05:22:41;;;;;;;6.40;5.73;;;21.70;97.20;;;;;;1719433;28;20209;-71
2023/06/20 05:23:31;;;;;;;6.90;6.13;;;21.70;97.20;;;;;;1719606;28;20463;-71
2023/06/20 05:24:23;;;;;;;6.47;5.97;;;21.70;97.20;;;;;;1719368;28;20207;-71
2023/06/20 05:25:14;;;;;;;6.00;5.50;;;21.70;97.20;;;;;;1719783;28;20237;-71
2023/06/20 05:26:06;;;;;;;6.23;5.63;;;21.70;97.20;;;;;;1727323;28;20197;-71
2023/06/20 05:26:56;;;;;;;7.40;5.88;;;21.70;97.20;;;;;;1728260;28;20443;-71
2023/06/20 05:27:48;;;;;;;6.20;5.20;;;21.70;97.20;;;;;;1728264;28;20205;-71
2023/06/20 05:28:39;;;;;;;5.90;5.40;;;21.70;97.20;;;;;;1727981;28;20200;-71
2023/06/20 05:29:30;;;;;;;7.20;5.83;;;21.70;97.20;;;;;;1728130;28;20211;-72
2023/06/20 05:30:21;;;;;;;5.80;4.75;;;21.70;97.20;;;;;;1728005;28;20209;-71
2023/06/20 05:31:14;;;;;;;5.47;4.93;;;21.70;97.20;;;;;;1728284;28;20204;-71
2023/06/20 05:32:06;;;;;;;5.97;5.38;;;21.70;97.20;;;;;;1725818;28;20450;-71
2023/06/20 05:32:57;;;;;;;5.75;5.25;;;21.70;97.20;;;;;;1720407;28;20706;-72
2023/06/20 05:33:48;;;;;;;6.40;5.25;;;21.70;97.20;;;;;;1719135;28;20197;-71
2023/06/20 05:34:40;;;;;;;6.70;5.47;;;21.70;97.20;;;;;;1719154;28;20276;-72
2023/06/20 05:35:30;;;;;;;5.90;4.95;;;21.80;97.20;;;;;;1718966;28;20240;-71
2023/06/20 05:36:22;;;;;;;7.30;5.80;;;21.80;97.20;;;;;;1719015;28;20216;-71
2023/06/20 05:37:13;;;;;;;13.25;5.95;;;21.80;97.20;;;;;;1719799;28;20201;-71
2023/06/20 05:38:05;;;;;;;10.83;5.70;;;21.80;97.20;;;;;;1719243;28;20216;-72
2023/06/20 05:38:58;;;;;;;6.45;4.80;;;21.80;97.20;;;;;;1719235;28;20726;-71
2023/06/20 05:39:50;;;;;;;5.43;5.00;;;21.80;97.20;;;;;;1718909;28;20197;-70
2023/06/20 05:40:40;;;;;;;9.90;5.75;;;21.80;97.20;;;;;;1719379;28;20249;-70
2023/06/20 05:41:32;;;;;;;6.63;5.30;;;21.90;97.20;;;;;;1719369;28;20197;-70
2023/06/20 05:42:23;;;;;;;6.43;5.72;;;21.80;97.20;;;;;;1719205;28;20232;-70
2023/06/20 05:43:14;;;;;;;6.90;6.10;;;21.90;97.20;;;;;;1719187;28;20197;-70
2023/06/20 05:44:05;;;;;;;6.18;5.47;;;21.90;97.20;;;;;;1719010;28;20553;-70
2023/06/20 05:44:57;;;;;;;7.00;5.47;;;21.90;97.20;;;;;;1719707;28;20186;-70
2023/06/20 05:45:48;;;;;;;5.90;5.30;;;21.90;97.20;;;;;;1719155;28;20216;-69
2023/06/20 05:46:41;;;;;;;8.20;5.60;;;21.90;97.20;;;;;;1719192;28;20203;-70
2023/06/20 05:47:31;;;;;;;6.72;5.93;;;22.00;97.20;;;;;;1719131;28;20208;-69
2023/06/20 05:48:24;;;;;;;6.67;5.60;;;22.00;97.20;;;;;;1718361;28;20705;-69
2023/06/20 05:49:15;;;;;;;9.77;5.72;;;22.00;97.20;;;;;;1719880;28;20464;-69
2023/06/20 05:50:08;;;;;;;6.78;5.43;;;22.10;97.20;;;;;;1719269;28;20681;-69
2023/06/20 05:51:00;;;;;;;5.90;4.93;;;22.10;97.20;;;;;;1719078;28;20225;-70
2023/06/20 05:51:54;;;;;;;6.75;6.15;;;22.10;97.20;;;;;;1719098;28;20281;-69
2023/06/20 05:52:44;;;;;;;5.72;5.28;;;22.20;97.20;;;;;;1719422;28;20205;-70
2023/06/20 05:53:36;;;;;;;6.03;5.47;;;22.20;97.20;;;;;;1719361;28;20193;-69
2023/06/20 05:54:27;;;;;;;6.25;5.10;;;22.20;97.20;;;;;;1720083;28;20705;-69
2023/06/20 05:55:19;;;;;;;6.57;5.90;;;22.20;97.20;;;;;;1721318;28;20675;-70
2023/06/20 05:56:10;;;;;;;6.03;5.25;;;22.30;97.20;;;;;;1721356;28;20612;-69
2023/06/20 05:57:02;;;;;;;7.75;6.13;;;22.30;97.20;;;;;;1721299;28;20244;-70
2023/06/20 05:57:53;;;;;;;5.88;5.22;;;22.30;97.20;;;;;;1721254;28;20212;-70
2023/06/20 05:58:45;;;;;;;6.63;6.07;;;22.40;97.20;;;;;;1721072;28;20211;-70
2023/06/20 05:59:35;;;;;;;5.68;5.20;;;22.40;97.20;;;;;;1721300;28;20208;-70
2023/06/20 06:00:27;;;;;;;6.30;5.80;;;22.40;97.20;;;;;;1721271;28;20292;-70
2023/06/20 06:01:18;;;;;;;6.75;5.93;;;22.50;97.20;;;;;;1721258;28;20477;-70
2023/06/20 06:02:12;;;;;;;9.10;5.75;;;22.50;97.20;;;;;;1721254;28;20747;-70
2023/06/20 06:03:03;;;;;;;7.03;5.32;;;22.50;97.20;;;;;;1721205;28;20247;-70
2023/06/20 06:03:55;;;;;;;8.55;5.93;;;22.60;97.20;;;;;;1721303;28;20722;-72
2023/06/20 06:04:46;;;;;;;6.60;5.90;;;22.60;97.20;;;;;;1721211;28;20209;-72
2023/06/20 06:05:39;;;;;;;5.70;5.20;;;22.60;97.20;;;;;;1720021;28;20215;-72
2023/06/20 06:06:29;;;;;;;5.93;5.30;;;22.60;97.20;;;;;;1718948;28;20284;-72
2023/06/20 06:07:21;;;;;;;6.17;5.67;;;22.70;97.20;;;;;;1719054;28;20441;-72
2023/06/20 06:08:12;;;;;;;5.63;5.13;;;22.70;97.20;;;;;;1718335;28;20616;-73
2023/06/20 06:09:04;;;;;;;6.13;5.53;;;22.70;97.20;;;;;;1719061;28;20591;-72
2023/06/20 06:09:55;;;;;;;7.10;6.00;;;22.70;97.20;;;;;;1718805;28;20456;-72
2023/06/20 06:10:46;;;;;;;6.10;5.53;;;22.80;97.20;;;;;;1719235;28;20308;-72
2023/06/20 06:11:37;;;;;;;10.23;5.93;;;22.80;97.20;;;;;;1719076;28;21802;-72
2023/06/20 06:12:29;;;;;;;6.60;5.97;;;22.80;97.20;;;;;;1719075;28;20574;-72
2023/06/20 06:13:20;;;;;;;6.38;4.93;;;22.80;97.20;;;;;;1719656;28;20217;-72
2023/06/20 06:14:11;;;;;;;6.07;5.20;;;22.80;97.20;;;;;;1719477;28;20201;-72
2023/06/20 06:15:03;;;;;;;7.35;5.93;;;22.80;97.20;;;;;;1718832;28;20463;-72
2023/06/20 06:15:55;;;;;;;6.03;5.53;;;22.90;97.20;;;;;;1718691;28;20224;-72
2023/06/20 06:16:45;;;;;;;6.15;5.55;;;22.90;97.20;;;;;;1718998;28;20209;-72
2023/06/20 06:17:38;;;;;;;7.10;5.67;;;22.90;97.20;;;;;;1719030;28;20625;-72
2023/06/20 06:18:30;;;;;;;10.15;5.55;;;23.00;97.20;;;;;;1718701;28;20197;-72
2023/06/20 06:19:22;;;;;;;8.07;5.40;;;23.00;97.20;;;;;;1719947;28;20268;-69
2023/06/20 06:20:15;;;;;;;6.32;5.72;;;23.00;97.20;;;;;;1721044;28;20749;-69
2023/06/20 06:21:07;;;;;;;8.27;5.40;;;23.10;97.20;;;;;;1721164;28;20284;-70
2023/06/20 06:21:57;;;;;;;6.20;5.55;;;23.10;97.20;;;;;;1721333;28;20197;-70
2023/06/20 06:22:49;;;;;;;6.90;6.20;;;23.10;97.20;;;;;;1721231;28;20204;-70
2023/06/20 06:23:40;;;;;;;6.45;5.63;;;23.10;97.20;;;;;;1721180;28;20205;-69
2023/06/20 06:24:32;;;;;;;6.33;5.60;;;23.10;97.20;;;;;;1721222;28;20205;-69
2023/06/20 06:25:22;;;;;;;6.40;5.40;;;23.20;97.20;;;;;;1721152;28;20712;-70
2023/06/20 06:26:14;;;;;;;13.30;6.50;;;23.20;97.20;;;;;;1720479;28;20673;-69
2023/06/20 06:27:06;;;;;;;8.43;5.50;;;23.20;97.20;;;;;;1721254;28;20822;-70
2023/06/20 06:27:58;;;;;;;6.15;5.45;;;23.20;97.20;;;;;;1721075;28;20197;-70
2023/06/20 06:28:49;;;;;;;10.48;6.38;;;23.20;97.20;;;;;;1721179;28;20205;-70
2023/06/20 06:29:41;;;;;;;8.63;6.30;;;23.30;97.20;;;;;;1721153;28;20205;-70
2023/06/20 06:30:32;;;;;;;7.32;5.93;;;23.30;97.20;;;;;;1720996;28;20240;-72
2023/06/20 06:31:29;;;;;;;14.65;5.65;;;23.30;97.20;;;;;;1721219;28;20303;-72
2023/06/20 06:32:20;;;;;;;11.35;5.78;;;23.30;97.20;;;;;;1721195;28;20749;-72
2023/06/20 06:33:14;;;;;;;9.60;5.80;;;23.30;97.20;;;;;;1721003;28;20711;-72
2023/06/20 06:34:05;;;;;;;6.75;6.10;;;23.30;97.20;;;;;;1721080;28;20445;-72
2023/06/20 06:34:59;;;;;;;6.13;5.53;;;23.40;97.20;;;;;;1721105;28;20205;-72
2023/06/20 06:35:50;;;;;;;6.90;5.65;;;23.40;97.20;;;;;;1720834;28;20230;-69
2023/06/20 06:36:42;;;;;;;8.98;5.97;;;23.40;97.20;;;;;;1720468;28;20200;-70
2023/06/20 06:37:33;;;;;;;6.57;5.80;;;23.40;97.20;;;;;;1720961;28;20690;-70
2023/06/20 06:38:26;;;;;;;8.32;6.05;;;23.40;97.20;;;;;;1720865;28;20490;-69
2023/06/20 06:39:17;;;;;;;7.22;5.90;;;23.40;97.20;;;;;;1720963;28;20201;-69
2023/06/20 06:40:10;;;;;;;6.88;5.80;;;23.50;97.20;;;;;;1720523;28;20193;-70
2023/06/20 06:41:02;;;;;;;9.13;6.45;;;23.50;97.20;;;;;;1718677;28;20609;-69
2023/06/20 06:41:53;;;;;;;6.78;5.93;;;23.50;97.20;;;;;;1719021;28;20700;-69
2023/06/20 06:42:44;;;;;;;7.07;5.15;;;23.50;97.20;;;;;;1718753;28;20193;-69
2023/06/20 06:43:36;;;;;;;7.80;6.00;;;23.50;97.20;;;;;;1719263;28;20198;-69
2023/06/20 06:44:27;;;;;;;6.85;6.25;;;23.50;97.20;;;;;;1720215;28;20461;-69
2023/06/20 06:45:19;;;;;;;6.90;6.00;;;23.60;97.20;;;;;;1721010;28;20224;-69
2023/06/20 06:46:09;;;;;;;7.05;6.45;;;23.60;97.20;;;;;;1720990;28;20201;-70
2023/06/20 06:47:01;;;;;;;11.87;6.20;;;23.60;97.20;;;;;;1719256;28;20220;-69
2023/06/20 06:47:52;;;;;;;11.17;6.03;;;23.60;97.20;;;;;;1718552;28;20635;-69
2023/06/20 06:48:47;;;;;;;6.80;6.10;;;23.60;97.20;;;;;;1718586;28;20881;-69
2023/06/20 06:49:38;;;;;;;7.80;5.90;;;23.70;97.20;;;;;;1719377;28;20212;-70
2023/06/20 06:50:29;;;;;;;7.57;6.63;;;23.70;97.20;;;;;;1720967;28;20216;-70
2023/06/20 06:51:21;;;;;;;7.27;6.57;;;23.70;97.20;;;;;;1720944;28;20213;-70
2023/06/20 06:52:13;;;;;;;8.45;6.10;;;23.80;97.20;;;;;;1721031;28;20934;-69
2023/06/20 06:53:03;;;;;;;12.30;6.32;;;23.80;97.20;;;;;;1720687;28;20208;-70
2023/06/20 06:53:55;;;;;;;6.57;5.83;;;23.80;97.20;;;;;;1720124;28;20205;-70
2023/06/20 06:54:46;;;;;;;6.82;6.13;;;23.80;97.20;;;;;;1721029;28;20212;-69
2023/06/20 06:55:38;;;;;;;7.00;5.87;;;23.90;97.20;;;;;;1720944;28;20207;-69
2023/06/20 06:56:28;;;;;;;6.22;5.72;;;23.90;97.20;;;;;;1720962;28;20208;-70
2023/06/20 06:57:20;;;;;;;9.57;6.90;;;23.90;97.20;;;;;;1720909;28;20211;-70
2023/06/20 06:58:11;;;;;;;7.13;6.43;;;23.90;97.20;;;;;;1720691;28;20563;-70
2023/06/20 06:59:02;;;;;;;10.30;5.80;;;24.00;97.20;;;;;;1721007;28;20219;-69
2023/06/20 06:59:53;;;;;;;7.40;6.38;;;24.00;97.20;;;;;;1720842;28;20213;-69
2023/06/20 07:00:45;;;;;;;7.30;5.90;;;24.10;97.20;;;;;;1720909;28;20300;-69
2023/06/20 07:01:36;;;;;;;5.93;5.40;;;24.10;97.20;;;;;;1720964;28;20296;-70
2023/06/20 07:02:27;;;;;;;9.87;5.47;;;24.20;97.20;;;;;;1720920;28;20209;-70
2023/06/20 07:03:18;;;;;;;7.90;6.60;;;24.20;97.20;;;;;;1720937;28;20570;-70
2023/06/20 07:04:11;;;;;;;8.10;6.63;;;24.20;97.20;;;;;;1720992;28;20541;-70
2023/06/20 07:05:04;;;;;;;9.35;6.35;;;24.20;97.20;;;;;;1720141;28;20306;-70
2023/06/20 07:05:56;;;;;;;6.20;5.68;;;24.30;97.20;;;;;;1718553;28;20228;-70
2023/06/20 07:06:46;;;;;;;7.15;6.35;;;24.30;97.20;;;;;;1718728;28;20592;-70
2023/06/20 07:07:39;;;;;;;6.93;6.13;;;24.30;97.20;;;;;;1718456;28;20575;-70
2023/06/20 07:08:29;;;;;;;9.80;6.63;;;24.40;97.20;;;;;;1718484;28;20217;-69
2023/06/20 07:09:21;;;;;;;8.63;6.20;;;24.40;97.20;;;;;;1718625;28;20220;-70
2023/06/20 07:10:12;;;;;;;8.38;6.03;;;24.40;97.20;;;;;;1720017;28;20212;-69
2023/06/20 07:11:03;;;;;;;7.10;6.40;;;24.50;97.20;;;;;;1721018;28;20228;-70
2023/06/20 07:11:54;;;;;;;15.13;6.40;;;24.50;97.20;;;;;;1720797;28;20197;-70
2023/06/20 07:12:46;;;;;;;6.70;5.97;;;24.60;97.20;;;;;;1720854;28;20198;-70
2023/06/20 07:13:36;;;;;;;8.07;6.35;;;24.60;97.20;;;;;;1720918;28;20256;-70
2023/06/20 07:14:28;;;;;;;7.07;6.10;;;24.60;97.20;;;;;;1720816;28;20204;-69
2023/06/20 07:15:19;;;;;;;6.50;5.95;;;24.70;97.20;;;;;;1720962;28;20217;-70
2023/06/20 07:16:11;;;;;;;8.13;6.00;;;24.70;97.20;;;;;;1720878;28;20272;-69
2023/06/20 07:17:01;;;;;;;6.22;5.65;;;24.70;97.20;;;;;;1720964;28;20202;-69
2023/06/20 07:17:53;;;;;;;8.63;5.93;;;24.80;97.20;;;;;;1720736;28;20205;-70
2023/06/20 07:18:44;;;;;;;7.35;6.35;;;24.80;97.20;;;;;;1720572;28;20445;-70
2023/06/20 07:19:37;;;;;;;11.70;6.47;;;24.90;97.20;;;;;;1718664;28;21418;-70
2023/06/20 07:20:28;;;;;;;6.60;6.10;;;24.90;97.20;;;;;;1718343;28;20200;-70
2023/06/20 07:21:19;;;;;;;7.33;6.73;;;25.00;97.20;;;;;;1718659;28;20204;-69
2023/06/20 07:22:11;;;;;;;7.78;5.95;;;25.00;97.20;;;;;;1719936;28;20224;-70
2023/06/20 07:23:02;;;;;;;7.65;6.95;;;25.10;97.20;;;;;;1720847;28;20229;-70
2023/06/20 07:23:53;;;;;;;11.90;6.17;;;25.10;97.20;;;;;;1720830;28;20193;-70
2023/06/20 07:24:44;;;;;;;8.05;6.35;;;25.20;97.20;;;;;;1720815;28;20208;-69
2023/06/20 07:25:36;;;;;;;6.50;6.00;;;25.20;97.20;;;;;;1720767;28;20208;-70
2023/06/20 07:26:27;;;;;;;6.85;6.18;;;25.20;97.20;;;;;;1720773;28;20472;-70
2023/06/20 07:27:18;;;;;;;8.10;6.40;;;25.30;97.20;;;;;;1720734;28;20212;-69
2023/06/20 07:28:10;;;;;;;6.28;5.68;;;25.30;97.20;;;;;;1720508;28;20232;-70
2023/06/20 07:29:01;;;;;;;7.00;6.35;;;25.30;97.20;;;;;;1720895;28;20655;-69
2023/06/20 07:29:52;;;;;;;7.15;6.45;;;25.30;97.20;;;;;;1720628;28;20208;-69
2023/06/20 07:30:44;;;;;;;6.70;6.00;;;25.40;97.20;;;;;;1720709;28;20233;-70
2023/06/20 07:31:34;;;;;;;8.02;6.32;;;25.40;97.20;;;;;;1720814;28;20205;-69
2023/06/20 07:32:26;;;;;;;6.73;5.93;;;25.40;97.20;;;;;;1720805;28;20205;-69
2023/06/20 07:33:17;;;;;;;6.57;5.60;;;25.50;97.20;;;;;;1720689;28;20217;-69
2023/06/20 07:34:09;;;;;;;7.57;6.03;;;25.50;97.20;;;;;;1720771;28;20265;-70
2023/06/20 07:35:02;;;;;;;7.10;6.50;;;25.60;97.20;;;;;;1720517;28;20209;-72
2023/06/20 07:35:53;;;;;;;8.50;6.65;;;25.60;97.20;;;;;;1719336;28;20679;-72
2023/06/20 07:36:44;;;;;;;8.13;6.30;;;25.60;97.20;;;;;;1718619;28;20667;-72
2023/06/20 07:37:35;;;;;;;7.40;6.63;;;25.60;97.20;;;;;;1718662;28;20241;-73
2023/06/20 07:38:27;;;;;;;7.10;6.40;;;25.60;97.20;;;;;;1718329;28;20208;-72
2023/06/20 07:39:17;;;;;;;7.47;6.78;;;25.60;97.20;;;;;;1718231;28;20211;-72
2023/06/20 07:40:10;;;;;;;7.20;6.50;;;25.60;97.20;;;;;;1718618;28;20211;-72
2023/06/20 07:41:01;;;;;;;6.50;6.00;;;25.60;97.20;;;;;;1718707;28;20237;-72
2023/06/20 07:41:53;;;;;;;8.47;6.30;;;25.60;97.20;;;;;;1720729;28;20444;-70
2023/06/20 07:42:44;;;;;;;6.32;5.82;;;25.50;97.20;;;;;;1720725;28;20256;-70
2023/06/20 07:43:35;;;;;;;7.37;6.67;;;25.50;97.20;;;;;;1720693;28;20259;-70
2023/06/20 07:44:26;;;;;;;7.55;6.72;;;25.50;97.20;;;;;;1720727;28;20588;-70
2023/06/20 07:45:18;;;;;;;12.70;6.83;;;25.50;97.20;;;;;;1720679;28;20553;-70
2023/06/20 07:46:09;;;;;;;6.40;5.90;;;25.50;97.20;;;;;;1720708;28;20216;-70
2023/06/20 07:47:00;;;;;;;7.40;5.70;;;25.50;97.20;;;;;;1720734;28;20203;-70
2023/06/20 07:47:51;;;;;;;7.40;6.72;;;25.50;97.20;;;;;;1720644;28;20197;-70
2023/06/20 07:48:43;;;;;;;8.17;6.30;;;25.60;97.20;;;;;;1720507;28;20203;-70
2023/06/20 07:49:34;;;;;;;6.97;6.30;;;25.50;97.20;;;;;;1720741;28;20574;-70
2023/06/20 07:50:27;;;;;;;7.17;6.60;;;25.60;97.20;;;;;;1720882;28;20574;-70
2023/06/20 07:51:18;;;;;;;8.13;6.77;;;25.60;97.20;;;;;;1720865;28;20205;-70
2023/06/20 07:52:10;;;;;;;7.00;6.30;;;25.50;97.20;;;;;;1720122;28;20450;-70
2023/06/20 07:53:01;;;;;;;7.10;6.33;;;25.50;97.20;;;;;;1720713;28;20231;-70
2023/06/20 07:53:54;;;;;;;6.70;6.10;;;25.50;97.20;;;;;;1720610;28;20484;-70
2023/06/20 07:54:45;;;;;;;9.37;6.17;;;25.60;97.20;;;;;;1720817;28;20443;-70
2023/06/20 07:55:38;;;;;;;9.73;6.37;;;25.60;97.20;;;;;;1720752;28;20451;-70
2023/06/20 07:56:29;;;;;;;7.40;6.60;;;25.60;97.20;;;;;;1720690;28;20205;-70
2023/06/20 07:57:20;;;;;;;8.53;6.67;;;25.60;97.20;;;;;;1720650;28;20655;-70
2023/06/20 07:58:11;;;;;;;7.10;6.43;;;25.60;97.20;;;;;;1720525;28;20204;-70
2023/06/20 07:59:04;;;;;;;6.47;5.90;;;25.60;97.20;;;;;;1720788;28;20440;-70
2023/06/20 07:59:54;;;;;;;10.80;5.88;;;25.60;97.20;;;;;;1720656;28;20263;-69
2023/06/20 08:00:46;;;;;;;8.23;6.27;;;25.50;97.20;;;;;;1720898;28;20217;-70
2023/06/20 08:01:37;;;;;;;6.70;6.07;;;25.60;97.20;;;;;;1720711;28;20962;-70
2023/06/20 08:02:31;;;;;;;10.00;6.93;;;25.60;97.20;;;;;;1720669;28;20444;-70
2023/06/20 08:03:24;;;;;;;7.13;6.43;;;25.60;97.20;;;;;;1720776;28;20243;-70
2023/06/20 08:04:16;;;;;;;8.10;6.50;;;25.60;97.20;;;;;;1720778;28;20448;-70
2023/06/20 08:05:08;;;;;;;9.43;6.47;;;25.60;97.20;;;;;;1720768;28;20440;-70
2023/06/20 08:06:01;;;;;;;7.07;6.30;;;25.60;97.20;;;;;;1720676;28;20870;-70
2023/06/20 08:06:52;;;;;;;8.00;6.30;;;25.60;97.20;;;;;;1720768;28;20596;-70
2023/06/20 08:07:44;;;;;;;6.93;6.33;;;25.70;97.20;;;;;;1720683;28;20444;-70
2023/06/20 08:08:35;;;;;;;7.60;5.75;;;25.70;97.20;;;;;;1719491;28;20201;-70
2023/06/20 08:09:26;;;;;;;7.63;6.20;;;25.80;97.20;;;;;;1719906;28;20328;-70
2023/06/20 08:10:17;;;;;;;10.82;6.15;;;25.80;97.20;;;;;;1720575;28;20588;-70
2023/06/20 08:11:09;;;;;;;7.47;6.75;;;25.80;97.20;;;;;;1720663;28;20201;-70
2023/06/20 08:12:01;;;;;;;6.18;5.57;;;25.90;97.20;;;;;;1720735;28;20208;-70
2023/06/20 08:12:52;;;;;;;9.00;6.63;;;25.90;97.20;;;;;;1720655;28;20205;-71
2023/06/20 08:13:43;;;;;;;7.60;6.77;;;26.00;97.20;;;;;;1720547;28;20452;-70
2023/06/20 08:14:34;;;;;;;8.10;7.13;;;26.00;97.20;;;;;;1720665;28;20942;-70
2023/06/20 08:15:26;;;;;;;7.93;6.90;;;26.10;97.20;;;;;;1720714;28;20880;-70
2023/06/20 08:16:17;;;;;;;8.20;6.57;;;26.10;97.20;;;;;;1720671;28;20208;-70
2023/06/20 08:17:09;;;;;;;7.10;6.50;;;26.20;97.20;;;;;;1720575;28;20527;-70
2023/06/20 08:18:00;;;;;;;7.97;6.85;;;26.20;97.20;;;;;;1720388;28;20208;-70
2023/06/20 08:18:51;;;;;;;7.27;6.40;;;26.20;97.20;;;;;;1720596;28;20201;-70
2023/06/20 08:19:42;;;;;;;7.83;6.70;;;26.20;97.20;;;;;;1720586;28;20614;-71
2023/06/20 08:20:34;;;;;;;10.03;6.93;;;26.10;97.20;;;;;;1720547;28;20486;-70
2023/06/20 08:21:26;;;;;;;7.55;6.60;;;26.20;97.20;;;;;;1720697;28;20216;-70
2023/06/20 08:22:17;;;;;;;9.47;6.67;;;26.20;97.20;;;;;;1720642;28;20232;-70
2023/06/20 08:23:08;;;;;;;7.07;6.37;;;26.20;97.20;;;;;;1720645;28;20436;-70
2023/06/20 08:24:00;;;;;;;8.60;5.93;;;26.20;97.20;;;;;;1720627;28;20442;-70
2023/06/20 08:24:51;;;;;;;6.83;6.23;;;26.30;97.20;;;;;;1720281;28;20205;-70
2023/06/20 08:25:42;;;;;;;7.57;6.77;;;26.30;97.20;;;;;;1718968;28;20441;-70
2023/06/20 08:26:33;;;;;;;7.60;6.90;;;26.40;97.20;;;;;;1718240;28;20208;-70
2023/06/20 08:27:25;;;;;;;7.83;7.03;;;26.40;97.20;;;;;;1720080;28;20528;-70
2023/06/20 08:28:16;;;;;;;11.07;6.80;;;26.50;97.20;;;;;;1720216;28;20202;-70
2023/06/20 08:29:08;;;;;;;7.20;6.60;;;26.50;97.20;;;;;;1720670;28;20444;-70
2023/06/20 08:29:59;;;;;;;7.80;7.10;;;26.50;97.20;;;;;;1720496;28;20297;-70
2023/06/20 08:30:51;;;;;;;7.63;6.83;;;26.60;97.20;;;;;;1720432;28;20910;-70
2023/06/20 08:31:41;;;;;;;6.80;6.10;;;26.60;97.20;;;;;;1720601;28;20205;-70
2023/06/20 08:32:33;;;;;;;8.93;7.27;;;26.70;97.20;;;;;;1721730;28;20289;-70
2023/06/20 08:33:24;;;;;;;8.73;6.87;;;26.70;97.20;;;;;;1722127;28;20705;-71
2023/06/20 08:34:15;;;;;;;8.70;6.60;;;26.70;97.20;;;;;;1721721;28;20847;-70
2023/06/20 08:35:08;;;;;;;8.57;6.93;;;26.80;97.20;;;;;;1721997;28;20228;-70
2023/06/20 08:36:01;;;;;;;10.87;6.93;;;26.80;97.20;;;;;;1721947;28;20197;-70
2023/06/20 08:36:53;;;;;;;7.50;6.63;;;26.90;97.20;;;;;;1721817;28;20521;-70
2023/06/20 08:37:45;;;;;;;7.53;6.83;;;26.90;97.20;;;;;;1721842;28;20535;-70
2023/06/20 08:38:36;;;;;;;9.57;7.78;;;27.00;97.20;;;;;;1721592;28;20456;-70
2023/06/20 08:39:28;;;;;;;9.80;6.70;;;27.10;97.20;;;;;;1721833;28;20229;-70
2023/06/20 08:40:20;;;;;;;9.93;6.90;;;27.10;97.20;;;;;;1721840;28;20212;-70
2023/06/20 08:41:12;;;;;;;9.17;6.90;;;27.20;97.20;;;;;;1721832;28;20450;-70
2023/06/20 08:42:04;;;;;;;7.57;6.90;;;27.20;97.20;;;;;;1721253;28;20436;-70
2023/06/20 08:42:56;;;;;;;6.80;6.20;;;27.30;97.20;;;;;;1720541;28;20511;-71
2023/06/20 08:43:47;;;;;;;7.00;6.30;;;27.40;97.20;;;;;;1719668;28;20506;-70
2023/06/20 08:44:39;;;;;;;7.23;6.53;;;27.40;97.20;;;;;;1719410;28;20510;-70
2023/06/20 08:45:29;;;;;;;8.43;7.73;;;27.40;97.20;;;;;;1719660;28;20235;-70
2023/06/20 08:46:24;;;;;;;10.30;6.60;;;27.40;97.20;;;;;;1719851;28;20448;-70
2023/06/20 08:47:14;;;;;;;7.63;6.37;;;27.50;97.20;;;;;;1719607;28;20212;-70
2023/06/20 08:48:06;;;;;;;6.57;5.97;;;27.50;97.20;;;;;;1719477;28;20494;-70
2023/06/20 08:48:57;;;;;;;6.90;6.20;;;27.50;97.20;;;;;;1719508;28;20223;-70
2023/06/20 08:49:49;;;;;;;7.53;6.83;;;27.50;97.20;;;;;;1719383;28;20492;-70
2023/06/20 08:50:40;;;;;;;7.77;6.97;;;27.50;97.20;;;;;;1719313;28;20894;-70
2023/06/20 08:51:34;;;;;;;8.00;6.03;;;27.50;97.20;;;;;;1721145;28;20488;-70
2023/06/20 08:52:29;;;;;;;7.03;6.33;;;27.60;97.20;;;;;;1721852;28;20201;-70
2023/06/20 08:53:21;;;;;;;6.57;6.07;;;27.60;97.20;;;;;;1721824;28;20824;-70
2023/06/20 08:54:16;;;;;;;7.17;6.47;;;27.60;97.20;;;;;;1721924;28;20256;-70
2023/06/20 08:55:09;;;;;;;7.63;6.93;;;27.70;97.20;;;;;;1721777;28;20444;-69
2023/06/20 08:56:01;;;;;;;7.17;6.47;;;27.70;97.20;;;;;;1721789;28;20451;-70
2023/06/20 08:56:54;;;;;;;9.97;6.50;;;27.70;97.20;;;;;;1721714;28;20436;-70
2023/06/20 08:57:45;;;;;;;9.17;6.57;;;27.70;97.20;;;;;;1721680;28;20452;-70
2023/06/20 08:58:37;;;;;;;8.27;6.20;;;27.80;97.20;;;;;;1720206;28;20456;-70
2023/06/20 08:59:29;;;;;;;8.23;7.00;;;27.80;97.20;;;;;;1721635;28;20444;-70
2023/06/20 09:00:20;;;;;;;7.77;6.47;;;27.80;97.20;;;;;;1721615;28;20444;-70
2023/06/20 09:01:12;;;;;;;7.77;5.97;;;27.90;97.20;;;;;;1721819;28;20444;-70
2023/06/20 09:02:04;;;;;;;7.50;6.80;;;27.90;97.20;;;;;;1721670;28;20451;-73
2023/06/20 09:02:55;;;;;;;7.43;6.63;;;27.90;97.20;;;;;;1721810;28;20444;-70
2023/06/20 09:03:50;;;;;;;11.50;7.10;;;27.90;97.20;;;;;;1721716;28;20448;-70
2023/06/20 09:04:42;;;;;;;9.07;6.97;;;28.00;97.20;;;;;;1721673;28;20447;-70
2023/06/20 09:05:41;;;;;;;9.47;7.10;;;28.00;97.20;;;;;;1721756;28;20969;-70
2023/06/20 09:06:37;;;;;;;7.13;6.43;;;28.00;97.20;;;;;;1721730;28;20946;-70
2023/06/20 09:07:36;;;;;;;6.90;6.20;;;28.00;97.20;;;;;;1721649;28;20452;-70
2023/06/20 09:08:36;;;;;;;9.10;6.13;;;28.00;97.20;;;;;;1721397;28;20452;-70
2023/06/20 09:09:27;;;;;;;10.38;6.50;;;28.00;97.20;;;;;;1721643;28;20440;-70
2023/06/20 09:10:21;;;;;;;9.10;6.40;;;28.10;97.20;;;;;;1721654;28;20205;-71
2023/06/20 09:11:13;;;;;;;7.87;6.63;;;28.10;97.20;;;;;;1721598;28;20559;-70
2023/06/20 09:12:05;;;;;;;6.80;6.10;;;28.10;97.20;;;;;;1721737;28;20451;-70
2023/06/20 09:12:57;;;;;;;6.80;6.10;;;28.10;97.20;;;;;;1721756;28;20441;-69
2023/06/20 09:13:48;;;;;;;7.03;6.27;;;28.10;97.20;;;;;;1721637;28;20922;-69
2023/06/20 09:14:40;;;;;;;7.53;6.50;;;28.10;97.20;;;;;;1721575;28;20816;-70
2023/06/20 09:15:30;;;;;;;8.87;6.43;;;28.10;97.20;;;;;;1720089;28;20205;-69
2023/06/20 09:16:27;;;;;;;9.10;6.37;;;28.20;97.20;;;;;;1719495;28;20463;-69
2023/06/20 09:17:19;;;;;;;8.70;6.00;;;28.20;97.20;;;;;;1719370;28;20272;-68
2023/06/20 09:18:14;;;;;;;13.40;6.80;;;28.30;97.20;;;;;;1719260;28;20444;-69
2023/06/20 09:19:05;;;;;;;9.00;7.00;;;28.40;97.20;;;;;;1721657;28;20962;-69
2023/06/20 09:19:58;;;;;;;7.27;6.67;;;28.40;97.20;;;;;;1721499;28;20475;-69
2023/06/20 09:20:50;;;;;;;8.80;6.33;;;28.40;97.20;;;;;;1721481;28;20479;-69
2023/06/20 09:21:40;;;;;;;7.60;6.73;;;28.50;97.20;;;;;;1721657;28;20455;-69
2023/06/20 09:22:34;;;;;;;6.90;6.30;;;28.50;97.20;;;;;;1721653;28;20450;-69
2023/06/20 09:23:29;;;;;;;6.80;6.20;;;28.40;97.20;;;;;;1721553;28;20212;-69
2023/06/20 09:24:19;;;;;;;7.07;6.23;;;28.40;97.20;;;;;;1721724;28;20449;-69
2023/06/20 09:25:13;;;;;;;7.33;6.63;;;28.40;97.20;;;;;;1721510;28;20448;-72
2023/06/20 09:26:13;;;;;;;9.83;7.60;;;28.40;97.20;;;;;;1721543;28;20225;-72
2023/06/20 09:27:05;;;;;;;10.50;6.40;;;28.50;97.20;;;;;;1721506;28;20467;-72
2023/06/20 09:27:57;;;;;;;8.47;5.93;;;28.50;97.20;;;;;;1721688;28;20447;-71
2023/06/20 09:28:48;;;;;;;7.00;6.27;;;28.50;97.20;;;;;;1721379;28;20472;-72